Time;durP1;ratioP1;P1;durP2;ratioP2;P2;SDS_P1;SDS_P2;PMS_P1;PMS_P2;Temp;Humidity;BMP_temperature;BMP_pressure;BME280_temperature;BME280_humidity;BME280_pressure;Samples;Min_cycle;Max_cycle;Signal;HPM_P1;HPM_P2
2021/03/15 05:01:10;;;;;;;38.58;25.95;;;;;;;9.55;75.62;92860.14;833938;71;28746;-79
2021/03/15 05:16:14;;;;;;;36.10;25.12;;;;;;;9.68;74.28;92863.57;833902;71;31524;-78
2021/03/15 05:31:22;;;;;;;32.17;22.13;;;;;;;9.22;73.69;92843.07;814628;71;31926;-78
2021/03/15 05:46:21;;;;;;;29.75;21.70;;;;;;;8.99;75.16;92823.77;829313;71;31045;-78
2021/03/15 06:01:31;;;;;;;31.02;22.02;;;;;;;9.10;75.63;92842.45;827982;71;28581;-78
2021/03/15 06:16:16;;;;;;;30.88;21.55;;;;;;;9.21;75.50;92842.86;827727;71;32278;-79
2021/03/15 06:31:13;;;;;;;31.12;23.15;;;;;;;9.45;74.82;92835.67;833702;71;31442;-75
2021/03/15 06:46:16;;;;;;;37.67;25.15;;;;;;;9.73;74.42;92838.50;833631;71;32677;-77
2021/03/15 07:01:15;;;;;;;29.98;22.70;;;;;;;10.23;72.55;92823.63;820819;71;32114;-79
2021/03/15 07:16:12;;;;;;;34.73;24.47;;;;;;;10.70;71.84;92819.84;828041;71;30284;-77
2021/03/15 07:31:29;;;;;;;30.48;22.50;;;;;;;11.02;70.89;92807.11;826975;71;32751;-75
2021/03/15 07:46:25;;;;;;;30.62;22.40;;;;;;;11.19;69.97;92792.98;833559;71;29759;-77
2021/03/15 08:01:12;;;;;;;31.97;22.20;;;;;;;11.59;68.52;92773.00;828524;71;30742;-77
2021/03/15 08:16:11;;;;;;;26.05;19.90;;;;;;;11.90;67.14;92749.98;833951;71;30685;-74
2021/03/15 08:31:23;;;;;;;29.00;20.37;;;;;;;12.33;65.42;92735.20;833592;71;33274;-78
2021/03/15 08:46:12;;;;;;;27.40;20.27;;;;;;;12.63;63.38;92716.29;833854;71;29782;-78
2021/03/15 09:01:54;;;;;;;26.37;20.75;;;;;;;12.59;63.35;92698.35;826027;71;33912;-78
2021/03/15 09:16:09;;;;;;;27.67;19.23;;;;;;;12.59;62.90;92670.19;827900;71;29707;-76
2021/03/15 09:31:18;;;;;;;26.05;19.40;;;;;;;12.98;61.34;92636.53;827215;71;32726;-76
2021/03/15 09:46:16;;;;;;;23.27;17.75;;;;;;;13.06;61.31;92632.14;833722;71;32708;-76
2021/03/15 10:01:16;;;;;;;22.50;16.42;;;;;;;12.79;60.90;92604.39;827814;71;29758;-77
2021/03/15 10:16:14;;;;;;;23.10;17.30;;;;;;;12.22;63.32;92600.84;827156;71;32735;-78
2021/03/15 10:31:09;;;;;;;21.17;16.37;;;;;;;11.98;64.59;92558.50;833525;71;29625;-77
2021/03/15 10:46:18;;;;;;;15.32;13.22;;;;;;;11.79;63.14;92536.09;833474;71;30830;-77
2021/03/15 11:01:15;;;;;;;19.82;15.28;;;;;;;11.63;64.79;92510.61;834088;71;32716;-76
2021/03/15 11:16:22;;;;;;;23.20;16.40;;;;;;;11.81;65.31;92512.86;835014;71;29801;-77
2021/03/15 11:31:20;;;;;;;13.88;11.75;;;;;;;12.03;67.65;92510.15;827133;71;33254;-79
2021/03/15 11:46:09;;;;;;;10.10;9.08;;;;;;;11.63;71.57;92494.84;828017;71;29691;-76
2021/03/15 12:01:13;;;;;;;5.53;5.08;;;;;;;11.10;70.48;92462.94;833457;71;32503;-78
2021/03/15 12:46:17;;;;;;;3.60;3.30;;;;;;;9.49;75.04;92451.73;835003;71;30256;-78
2021/03/15 13:01:14;;;;;;;6.37;5.40;;;;;;;9.62;79.86;92436.75;827436;71;32707;-78
2021/03/15 13:31:10;;;;;;;2.15;1.95;;;;;;;9.58;73.14;92459.45;828059;71;30224;-78
2021/03/15 13:46:15;;;;;;;2.40;2.12;;;;;;;8.84;72.72;92531.45;827363;71;32780;-79
2021/03/15 14:01:14;;;;;;;2.35;1.98;;;;;;;8.12;72.93;92593.58;824469;70;32560;-78
2021/03/15 14:16:09;;;;;;;2.15;2.05;;;;;;;7.15;74.44;92573.77;833839;71;30275;-77
2021/03/15 14:31:14;;;;;;;1.72;1.62;;;;;;;7.06;74.92;92612.70;828379;71;33050;-76
2021/03/15 15:01:33;;;;;;;3.02;2.72;;;;;;;6.26;75.56;92693.86;828129;71;30204;-77
2021/03/15 15:16:14;;;;;;;4.92;3.75;;;;;;;5.96;75.92;92677.52;826101;70;33297;-77
2021/03/15 15:31:08;;;;;;;3.08;2.83;;;;;;;5.74;75.68;92699.16;817081;71;29797;-76
2021/03/15 15:46:23;;;;;;;2.85;2.65;;;;;;;5.57;75.84;92719.90;824447;71;29991;-76
2021/03/15 16:01:08;;;;;;;3.77;3.20;;;;;;;5.55;75.81;92722.03;827875;71;29365;-77
2021/03/15 16:16:08;;;;;;;3.75;3.02;;;;;;;5.59;75.36;92719.06;828917;71;29571;-80
2021/03/15 16:31:14;;;;;;;3.55;3.25;;;;;;;5.36;74.37;92745.66;827843;71;32008;-78
2021/03/15 16:46:09;;;;;;;3.40;3.10;;;;;;;5.30;74.58;92765.81;833410;71;30858;-78
